createdAt,value
2023-03-08T00:00:07.694Z,0
2023-03-08T00:00:48.234Z,0
2023-03-08T00:01:28.727Z,0
2023-03-08T00:02:09.994Z,0
2023-03-08T00:02:50.508Z,0
2023-03-08T00:08:55.263Z,0
2023-03-08T00:09:35.781Z,0
2023-03-08T00:10:16.294Z,0
2023-03-08T00:10:56.807Z,0
2023-03-08T00:11:37.349Z,0
2023-03-08T00:12:17.894Z,0
2023-03-08T00:12:58.440Z,0
2023-03-08T00:13:38.946Z,0
2023-03-08T00:14:19.471Z,0
2023-03-08T00:15:00.013Z,0
2023-03-08T00:15:40.540Z,0
2023-03-08T00:21:45.771Z,0
2023-03-08T00:22:26.315Z,0
2023-03-08T00:23:06.828Z,0
2023-03-08T00:23:47.382Z,0
2023-03-08T00:24:27.912Z,0
2023-03-08T00:25:08.419Z,0
2023-03-08T00:25:48.969Z,0
2023-03-08T00:28:02.017Z,0
2023-03-08T00:28:42.598Z,0
2023-03-08T00:29:23.100Z,0
2023-03-08T00:30:03.588Z,0
2023-03-08T00:30:44.127Z,0
2023-03-08T00:31:24.686Z,0
2023-03-08T00:34:40.948Z,0
2023-03-08T00:35:21.496Z,0
2023-03-08T00:36:02.000Z,0
2023-03-08T00:36:42.509Z,0
2023-03-08T00:37:23.045Z,0
2023-03-08T00:38:03.565Z,0
2023-03-08T00:38:44.124Z,0
2023-03-08T00:39:24.612Z,0
2023-03-08T00:40:05.198Z,0
2023-03-08T00:42:18.287Z,0
2023-03-08T00:42:58.776Z,0
2023-03-08T00:43:39.286Z,0
2023-03-08T00:44:19.798Z,0
2023-03-08T00:46:53.705Z,0
2023-03-08T00:47:34.135Z,0
2023-03-08T00:48:14.726Z,0
2023-03-08T00:48:55.844Z,0
2023-03-08T00:49:36.354Z,0
2023-03-08T00:50:16.892Z,0
2023-03-08T00:50:57.413Z,0
2023-03-08T00:51:37.934Z,0
2023-03-08T00:52:18.492Z,0
2023-03-08T00:59:03.725Z,0
2023-03-08T00:59:44.295Z,0
2023-03-08T01:00:24.793Z,0
2023-03-08T01:01:05.373Z,0
2023-03-08T01:01:45.846Z,0
2023-03-08T01:02:26.383Z,0
2023-03-08T01:03:06.969Z,0
2023-03-08T01:03:47.500Z,0
2023-03-08T01:04:28.023Z,0
2023-03-08T01:05:08.547Z,0
2023-03-08T01:11:13.568Z,0
2023-03-08T01:11:54.114Z,0
2023-03-08T01:12:34.618Z,0
2023-03-08T01:13:15.133Z,0
2023-03-08T01:13:55.712Z,0
2023-03-08T01:14:36.266Z,0
2023-03-08T01:15:16.820Z,0
2023-03-08T01:15:57.362Z,0
2023-03-08T01:16:37.880Z,0
2023-03-08T01:17:18.469Z,0
2023-03-08T01:21:23.733Z,0
2023-03-08T01:22:04.264Z,0
2023-03-08T01:22:44.793Z,0
2023-03-08T01:23:25.316Z,0
2023-03-08T01:24:05.865Z,0
2023-03-08T01:24:46.367Z,0
2023-03-08T01:25:26.917Z,0
2023-03-08T01:26:07.483Z,0
2023-03-08T01:29:25.540Z,0
2023-03-08T01:30:06.138Z,0
2023-03-08T01:30:46.677Z,0
2023-03-08T01:31:27.220Z,0
2023-03-08T01:32:07.747Z,0
2023-03-08T01:32:48.248Z,0
2023-03-08T01:33:28.793Z,0
2023-03-08T01:34:09.264Z,0
2023-03-08T01:34:49.783Z,0
2023-03-08T01:35:30.440Z,0
2023-03-08T01:42:15.656Z,0
2023-03-08T01:42:56.314Z,0
2023-03-08T01:43:36.820Z,0
2023-03-08T01:44:17.338Z,0
2023-03-08T01:44:57.877Z,0
2023-03-08T01:45:38.412Z,0
2023-03-08T01:46:18.921Z,0
2023-03-08T01:46:59.436Z,0
2023-03-08T01:47:39.977Z,0
2023-03-08T01:48:20.475Z,0
2023-03-08T01:53:45.647Z,0
2023-03-08T01:54:26.186Z,0
2023-03-08T01:55:06.702Z,0
2023-03-08T01:55:47.208Z,0
2023-03-08T01:56:27.733Z,0
2023-03-08T01:57:08.246Z,0
2023-03-08T01:57:48.750Z,0
2023-03-08T01:58:29.277Z,0
2023-03-08T01:59:09.798Z,0
2023-03-08T01:59:50.313Z,0
2023-03-08T02:03:50.751Z,0
2023-03-08T02:04:31.310Z,0
2023-03-08T02:05:11.817Z,0
2023-03-08T02:05:52.360Z,0
2023-03-08T02:06:32.892Z,0
2023-03-08T02:07:13.435Z,0
2023-03-08T02:07:53.951Z,0
2023-03-08T02:08:34.451Z,0
2023-03-08T02:09:14.989Z,0
2023-03-08T02:09:55.508Z,0
2023-03-08T02:12:34.002Z,0
2023-03-08T02:13:14.539Z,0
2023-03-08T02:13:56.770Z,0
2023-03-08T02:14:37.281Z,0
2023-03-08T02:15:17.827Z,0
2023-03-08T02:15:58.347Z,0
2023-03-08T02:16:38.862Z,0
2023-03-08T02:22:43.814Z,0
2023-03-08T02:23:24.328Z,0
2023-03-08T02:24:04.822Z,0
2023-03-08T02:24:45.346Z,0
2023-03-08T02:25:25.868Z,0
2023-03-08T02:26:06.375Z,0
2023-03-08T02:26:46.932Z,0
2023-03-08T02:27:27.461Z,0
2023-03-08T02:28:07.972Z,0
2023-03-08T02:28:48.534Z,0
2023-03-08T02:29:29.071Z,0
2023-03-08T02:34:13.740Z,0
2023-03-08T02:34:54.256Z,0
2023-03-08T02:35:34.842Z,0
2023-03-08T02:36:15.288Z,0
2023-03-08T02:36:55.806Z,0
2023-03-08T02:37:36.358Z,0
2023-03-08T02:38:16.871Z,0
2023-03-08T02:38:57.394Z,0
2023-03-08T02:39:38.038Z,0
2023-03-08T02:40:18.541Z,0
2023-03-08T02:42:32.125Z,0
2023-03-08T02:43:12.639Z,0
2023-03-08T02:43:53.167Z,0
2023-03-08T02:44:33.728Z,0
2023-03-08T02:45:14.226Z,0
2023-03-08T02:45:54.741Z,0
2023-03-08T02:46:35.274Z,0
2023-03-08T02:47:15.790Z,0
2023-03-08T02:47:56.321Z,0
2023-03-08T02:48:36.824Z,0
2023-03-08T02:55:18.437Z,0
2023-03-08T02:55:58.955Z,0
2023-03-08T02:56:39.521Z,0
2023-03-08T02:57:20.037Z,0
2023-03-08T02:58:00.553Z,0
2023-03-08T02:58:41.099Z,0
2023-03-08T02:59:23.814Z,0
2023-03-08T03:00:02.155Z,0
2023-03-08T03:00:42.790Z,0
2023-03-08T03:01:23.381Z,0
2023-03-08T03:04:01.764Z,0
2023-03-08T03:04:42.278Z,0
2023-03-08T03:05:22.796Z,0
2023-03-08T03:06:03.644Z,0
2023-03-08T03:06:44.018Z,0
2023-03-08T03:07:24.520Z,0
2023-03-08T03:08:05.075Z,0
2023-03-08T03:08:45.593Z,0
2023-03-08T03:09:26.140Z,0
2023-03-08T03:10:07.526Z,0
2023-03-08T03:10:48.052Z,0
2023-03-08T03:11:28.643Z,0
2023-03-08T03:12:09.134Z,0
2023-03-08T03:12:49.686Z,0
2023-03-08T03:13:30.228Z,0
2023-03-08T03:17:33.369Z,0
2023-03-08T03:18:14.050Z,0
2023-03-08T03:18:54.572Z,0
2023-03-08T03:19:35.086Z,0
2023-03-08T03:20:15.641Z,0
2023-03-08T03:20:56.159Z,0
2023-03-08T03:21:36.723Z,0
2023-03-08T03:22:17.211Z,0
2023-03-08T03:22:57.739Z,0
2023-03-08T03:23:38.275Z,0
2023-03-08T03:29:43.032Z,0
2023-03-08T03:30:23.546Z,0
2023-03-08T03:31:04.171Z,0
2023-03-08T03:31:44.658Z,0
2023-03-08T03:32:25.252Z,0
2023-03-08T03:33:05.713Z,0
2023-03-08T03:33:46.247Z,0
2023-03-08T03:34:26.770Z,0
2023-03-08T03:35:07.270Z,0
2023-03-08T03:35:47.797Z,0
2023-03-08T03:36:28.303Z,0
2023-03-08T03:42:33.090Z,0
2023-03-08T03:43:13.612Z,0
2023-03-08T03:43:54.109Z,0
2023-03-08T03:44:34.700Z,0
2023-03-08T03:45:15.198Z,0
2023-03-08T03:45:55.705Z,0
2023-03-08T03:46:36.293Z,0
2023-03-08T03:47:16.737Z,0
2023-03-08T03:47:57.296Z,0
2023-03-08T03:48:37.800Z,0
2023-03-08T03:49:18.361Z,0
2023-03-08T03:55:23.058Z,0
2023-03-08T03:56:03.611Z,0
2023-03-08T03:56:44.155Z,0
2023-03-08T03:57:24.663Z,0
2023-03-08T03:58:05.181Z,0
2023-03-08T03:58:45.709Z,0
2023-03-08T03:59:26.914Z,0
2023-03-08T04:01:40.082Z,0
2023-03-08T04:02:20.599Z,0
2023-03-08T04:03:01.191Z,0
2023-03-08T04:03:44.098Z,0
2023-03-08T04:07:12.155Z,0
2023-03-08T04:07:52.745Z,0
2023-03-08T04:08:33.187Z,0
2023-03-08T04:09:13.795Z,0
2023-03-08T04:09:54.294Z,0
2023-03-08T04:10:34.807Z,0
2023-03-08T04:11:15.323Z,0
2023-03-08T04:11:56.783Z,0
2023-03-08T04:18:42.361Z,0
2023-03-08T04:19:22.876Z,0
2023-03-08T04:22:39.215Z,0
2023-03-08T04:23:19.768Z,0
2023-03-08T04:24:00.875Z,0
2023-03-08T04:24:40.781Z,0
2023-03-08T04:25:21.326Z,0
2023-03-08T04:26:01.852Z,0
2023-03-08T04:26:42.350Z,0
2023-03-08T04:27:22.873Z,0
2023-03-08T04:28:03.390Z,0
2023-03-08T04:28:44.043Z,0
2023-03-08T04:35:29.366Z,0
2023-03-08T04:36:09.860Z,0
2023-03-08T04:36:50.379Z,0
2023-03-08T04:37:30.909Z,0
2023-03-08T04:38:11.408Z,0
2023-03-08T04:38:51.957Z,0
2023-03-08T04:39:32.482Z,0
2023-03-08T04:40:12.997Z,0
2023-03-08T04:40:53.641Z,0
2023-03-08T04:41:34.162Z,0
2023-03-08T04:47:38.989Z,0
2023-03-08T04:48:19.452Z,0
2023-03-08T04:48:59.992Z,0
2023-03-08T04:49:40.516Z,0
2023-03-08T04:50:20.998Z,0
2023-03-08T04:51:01.543Z,0
2023-03-08T04:51:42.106Z,0
2023-03-08T04:52:22.654Z,0
2023-03-08T04:53:03.204Z,0
2023-03-08T04:53:43.741Z,0
2023-03-08T04:54:24.278Z,0
2023-03-08T04:57:02.706Z,0
2023-03-08T04:57:43.223Z,0
2023-03-08T04:58:24.692Z,0
2023-03-08T04:59:05.209Z,0
2023-03-08T04:59:45.729Z,0
2023-03-08T05:00:26.245Z,0
2023-03-08T05:01:06.833Z,0
2023-03-08T05:01:47.405Z,0
2023-03-08T05:05:06.903Z,0
2023-03-08T05:05:47.389Z,0
2023-03-08T05:06:27.912Z,0
2023-03-08T05:07:08.403Z,0
2023-03-08T05:09:22.925Z,0
2023-03-08T05:10:03.448Z,0
2023-03-08T05:10:43.959Z,0
2023-03-08T05:11:24.482Z,0
2023-03-08T05:12:04.987Z,0
2023-03-08T05:12:45.744Z,0
2023-03-08T05:13:26.282Z,0
2023-03-08T05:14:06.816Z,0
2023-03-08T05:14:47.301Z,0
2023-03-08T05:15:27.821Z,0
2023-03-08T05:20:13.253Z,0
2023-03-08T05:20:53.760Z,0
2023-03-08T05:21:35.016Z,0
2023-03-08T05:22:15.537Z,0
2023-03-08T05:22:59.191Z,0
2023-03-08T05:23:38.344Z,0
2023-03-08T05:29:43.075Z,0
2023-03-08T05:30:23.612Z,0
2023-03-08T05:31:04.122Z,4
2023-03-08T05:31:44.726Z,4
2023-03-08T05:32:25.277Z,4
2023-03-08T05:33:05.715Z,0
2023-03-08T05:33:46.248Z,0
2023-03-08T05:34:26.729Z,4
2023-03-08T05:35:07.272Z,4
2023-03-08T05:35:47.829Z,4
2023-03-08T05:42:33.034Z,12
2023-03-08T05:47:45.165Z,24
2023-03-08T05:48:25.702Z,28
2023-03-08T05:49:06.204Z,28
2023-03-08T05:49:48.022Z,32
2023-03-08T05:50:28.565Z,36
2023-03-08T05:51:09.193Z,36
2023-03-08T05:51:49.761Z,40
2023-03-08T05:58:35.274Z,88
2023-03-08T05:59:15.825Z,96
2023-03-08T05:59:56.339Z,104
2023-03-08T06:00:36.857Z,108
2023-03-08T06:01:17.417Z,116
2023-03-08T06:01:57.990Z,124
2023-03-08T06:02:38.476Z,132
2023-03-08T06:03:19.111Z,140
2023-03-08T06:04:00.402Z,148
2023-03-08T06:10:05.180Z,260
2023-03-08T06:10:45.811Z,288
2023-03-08T06:11:26.354Z,308
2023-03-08T06:12:06.911Z,332
2023-03-08T06:12:47.375Z,364
2023-03-08T06:13:27.911Z,392
2023-03-08T06:14:08.429Z,420
2023-03-08T06:14:48.992Z,456
2023-03-08T06:15:29.485Z,492
2023-03-08T06:16:10.011Z,524
2023-03-08T06:20:09.556Z,620
2023-03-08T06:20:50.101Z,636
2023-03-08T06:21:30.647Z,656
2023-03-08T06:22:11.186Z,672
2023-03-08T06:22:51.754Z,692
2023-03-08T06:23:32.308Z,696
2023-03-08T06:24:12.840Z,704
2023-03-08T06:24:53.357Z,716
2023-03-08T06:25:33.889Z,740
2023-03-08T06:26:14.437Z,764
2023-03-08T06:31:39.503Z,944
2023-03-08T06:32:20.147Z,980
2023-03-08T06:33:00.572Z,1012
2023-03-08T06:33:41.090Z,1032
2023-03-08T06:34:21.648Z,1036
2023-03-08T06:35:02.193Z,1032
2023-03-08T06:35:43.529Z,1028
2023-03-08T06:36:23.942Z,1020
2023-03-08T06:37:04.459Z,1008
2023-03-08T06:44:26.820Z,832
2023-03-08T06:45:07.178Z,836
2023-03-08T06:45:47.847Z,824
2023-03-08T06:46:28.435Z,824
2023-03-08T06:47:08.863Z,820
2023-03-08T06:47:49.386Z,824
2023-03-08T06:48:29.932Z,848
2023-03-08T06:49:10.511Z,880
2023-03-08T06:49:51.045Z,892
2023-03-08T06:50:31.552Z,888
2023-03-08T06:57:53.635Z,848
2023-03-08T06:58:34.192Z,852
2023-03-08T06:59:14.741Z,836
2023-03-08T06:59:55.306Z,820
2023-03-08T07:00:35.790Z,796
2023-03-08T07:01:16.347Z,776
2023-03-08T07:01:57.538Z,776
2023-03-08T07:02:38.050Z,800
2023-03-08T07:05:11.132Z,852
2023-03-08T07:05:51.689Z,852
2023-03-08T07:06:33.031Z,844
2023-03-08T07:07:13.581Z,832
2023-03-08T07:09:33.883Z,788
2023-03-08T07:10:14.772Z,772
2023-03-08T07:10:55.252Z,756
2023-03-08T07:11:35.783Z,752
2023-03-08T07:13:49.531Z,756
2023-03-08T07:14:31.748Z,740
2023-03-08T07:15:12.331Z,740
2023-03-08T07:15:54.618Z,756
2023-03-08T07:18:15.672Z,844
2023-03-08T07:18:54.435Z,864
2023-03-08T07:19:35.945Z,896
2023-03-08T07:20:16.429Z,940
2023-03-08T07:20:58.049Z,968
2023-03-08T07:25:43.459Z,960
2023-03-08T07:26:24.457Z,952
2023-03-08T07:27:04.991Z,948
2023-03-08T07:27:45.541Z,948
2023-03-08T07:28:26.022Z,960
2023-03-08T07:29:07.525Z,964
2023-03-08T07:31:09.772Z,1008
2023-03-08T07:31:55.690Z,984
2023-03-08T07:37:07.366Z,968
2023-03-08T07:37:47.886Z,948
2023-03-08T07:38:28.416Z,924
2023-03-08T07:39:08.978Z,940
2023-03-08T07:39:49.546Z,936
2023-03-08T07:40:29.914Z,912
2023-03-08T07:41:10.456Z,920
2023-03-08T07:41:50.968Z,972
2023-03-08T07:42:32.495Z,1020
2023-03-08T07:46:37.299Z,936
2023-03-08T07:47:18.454Z,952
2023-03-08T07:47:59.014Z,1052
2023-03-08T07:48:39.534Z,1232
2023-03-08T07:49:19.997Z,1404
2023-03-08T07:50:00.501Z,1484
2023-03-08T07:52:28.772Z,1744
2023-03-08T07:53:09.310Z,1752
2023-03-08T07:53:49.842Z,1804
2023-03-08T07:54:30.378Z,1868
2023-03-08T07:55:10.888Z,1904
2023-03-08T07:55:51.428Z,1892
2023-03-08T07:56:31.983Z,1864
2023-03-08T07:58:49.822Z,1836
2023-03-08T07:59:30.441Z,1812
2023-03-08T08:00:10.925Z,1836
2023-03-08T08:00:51.614Z,1936
2023-03-08T08:01:32.329Z,1968
2023-03-08T08:02:12.916Z,1944
2023-03-08T08:02:53.544Z,1916
2023-03-08T08:03:34.154Z,1920
2023-03-08T08:04:14.784Z,1972
2023-03-08T08:07:30.654Z,2260
2023-03-08T08:08:11.891Z,2136
2023-03-08T08:08:52.419Z,2172
2023-03-08T08:09:33.475Z,2428
2023-03-08T08:10:13.967Z,2912
2023-03-08T08:10:55.172Z,3176
2023-03-08T08:15:39.758Z,3576
2023-03-08T08:16:20.309Z,3668
2023-03-08T08:17:00.820Z,3600
2023-03-08T08:17:41.387Z,3256
2023-03-08T08:18:21.897Z,3232
2023-03-08T08:20:35.224Z,2984
2023-03-08T08:21:15.709Z,2912
2023-03-08T08:21:56.224Z,2768
2023-03-08T08:22:36.766Z,2860
2023-03-08T08:23:17.328Z,3028
2023-03-08T08:23:57.828Z,3260
2023-03-08T08:24:38.285Z,3636
2023-03-08T08:25:19.631Z,3744
2023-03-08T08:30:44.473Z,3100
2023-03-08T08:31:25.080Z,3164
2023-03-08T08:32:05.623Z,3244
2023-03-08T08:32:46.123Z,3412
2023-03-08T08:33:26.534Z,3700
2023-03-08T08:35:43.272Z,3716
2023-03-08T08:36:22.291Z,3988
2023-03-08T08:37:03.625Z,4296
2023-03-08T08:37:44.207Z,4448
2023-03-08T08:41:53.137Z,3940
2023-03-08T08:42:33.598Z,3972
2023-03-08T08:43:14.139Z,3900
2023-03-08T08:43:54.697Z,3648
2023-03-08T08:44:35.285Z,3688
2023-03-08T08:45:15.793Z,3764
2023-03-08T08:45:56.319Z,3868
2023-03-08T08:46:36.833Z,4128
2023-03-08T08:47:17.344Z,4108
2023-03-08T08:47:57.932Z,4128
2023-03-08T08:54:03.039Z,3360
2023-03-08T08:54:44.221Z,3556
2023-03-08T08:55:24.687Z,3692
2023-03-08T08:56:10.116Z,3472
2023-03-08T08:56:46.589Z,3392
2023-03-08T08:57:27.091Z,3208
2023-03-08T08:58:07.656Z,3140
2023-03-08T08:58:48.234Z,3264
2023-03-08T09:04:13.065Z,3340
2023-03-08T09:04:53.684Z,3200
2023-03-08T09:05:34.203Z,3388
2023-03-08T09:06:14.726Z,3960
2023-03-08T09:06:55.540Z,3844
2023-03-08T09:07:38.219Z,3636
2023-03-08T09:08:16.709Z,3968
2023-03-08T09:10:31.449Z,4264
2023-03-08T09:11:13.934Z,4252
2023-03-08T09:11:56.345Z,4352
2023-03-08T09:12:38.513Z,4732
2023-03-08T09:14:55.109Z,5500
2023-03-08T09:15:35.578Z,5808
2023-03-08T09:16:16.989Z,5900
2023-03-08T09:16:57.581Z,5844
2023-03-08T09:17:38.059Z,5716
2023-03-08T09:18:18.602Z,5432
2023-03-08T09:18:59.291Z,5644
2023-03-08T09:19:39.843Z,5892
2023-03-08T09:25:05.116Z,5764
2023-03-08T09:25:45.641Z,5752
2023-03-08T09:26:26.172Z,5828
2023-03-08T09:27:06.707Z,5368
2023-03-08T09:27:47.253Z,5076
2023-03-08T09:28:27.766Z,5188
2023-03-08T09:29:09.072Z,5236
2023-03-08T09:29:50.567Z,5488
2023-03-08T09:35:14.948Z,5952
2023-03-08T09:35:55.494Z,5928
2023-03-08T09:36:36.017Z,5832
2023-03-08T09:37:16.584Z,5980
2023-03-08T09:37:57.147Z,6332
2023-03-08T09:38:37.682Z,6136
2023-03-08T09:39:19.000Z,6184
2023-03-08T09:39:59.572Z,6508
2023-03-08T09:40:40.073Z,7116
2023-03-08T09:44:39.697Z,8724
2023-03-08T09:45:20.219Z,8224
2023-03-08T09:46:00.813Z,7876
2023-03-08T09:46:41.351Z,7320
2023-03-08T09:47:21.885Z,6400
2023-03-08T09:48:02.864Z,5652
2023-03-08T09:48:43.147Z,5692
2023-03-08T09:49:23.653Z,5888
2023-03-08T09:50:04.229Z,6220
2023-03-08T09:50:44.750Z,5944
2023-03-08T09:56:09.925Z,6012
2023-03-08T09:56:50.468Z,5860
2023-03-08T09:59:03.227Z,5804
2023-03-08T09:59:43.762Z,5640
2023-03-08T10:00:24.333Z,5668
2023-03-08T10:01:05.479Z,5716
2023-03-08T10:01:45.973Z,5744
2023-03-08T10:02:26.508Z,6012
2023-03-08T10:04:42.450Z,5860
2023-03-08T10:05:23.039Z,5812
2023-03-08T10:06:03.610Z,6080
2023-03-08T10:06:44.168Z,6236
2023-03-08T10:07:24.698Z,6220
2023-03-08T10:09:38.343Z,6608
2023-03-08T10:10:19.291Z,7076
2023-03-08T10:10:59.557Z,6864
2023-03-08T10:11:40.099Z,6168
2023-03-08T10:12:20.657Z,6352
2023-03-08T10:13:01.201Z,6288
2023-03-08T10:13:41.807Z,6060
2023-03-08T10:14:22.966Z,6168
2023-03-08T10:18:37.671Z,5240
2023-03-08T10:19:18.252Z,5120
2023-03-08T10:19:58.772Z,4916
2023-03-08T10:20:39.268Z,4720
2023-03-08T10:21:19.772Z,4392
2023-03-08T10:22:00.320Z,4196
2023-03-08T10:22:40.883Z,4036
2023-03-08T10:24:55.322Z,4228
2023-03-08T10:25:35.840Z,4540
2023-03-08T10:26:16.970Z,4872
2023-03-08T10:26:58.306Z,4988
2023-03-08T10:29:16.944Z,6536
2023-03-08T10:29:57.488Z,6844
2023-03-08T10:30:39.868Z,7268
2023-03-08T10:31:21.046Z,7180
2023-03-08T10:32:04.250Z,7424
2023-03-08T10:35:16.311Z,8016
2023-03-08T10:35:56.866Z,7920
2023-03-08T10:36:37.342Z,7628
2023-03-08T10:37:17.921Z,7080
2023-03-08T10:37:58.401Z,6388
2023-03-08T10:38:38.933Z,5876
2023-03-08T10:39:19.984Z,5624
2023-03-08T10:40:00.525Z,5952
2023-03-08T10:40:41.075Z,5696
2023-03-08T10:44:41.410Z,5296
2023-03-08T10:45:21.928Z,5708
2023-03-08T10:46:03.182Z,5640
2023-03-08T10:46:43.630Z,5744
2023-03-08T10:48:56.638Z,4556
2023-03-08T10:49:37.158Z,4536
2023-03-08T10:50:17.678Z,4816
2023-03-08T10:50:58.181Z,5068
2023-03-08T10:51:38.735Z,5488
2023-03-08T10:52:19.190Z,5872
2023-03-08T10:52:59.730Z,5432
2023-03-08T10:53:40.274Z,5016
2023-03-08T10:54:20.776Z,4600
2023-03-08T10:55:01.262Z,4388
2023-03-08T10:59:07.745Z,4560
2023-03-08T11:01:06.145Z,5300
2023-03-08T11:01:46.733Z,4608
2023-03-08T11:02:27.277Z,4572
2023-03-08T11:03:07.793Z,4608
2023-03-08T11:03:48.374Z,4352
2023-03-08T11:04:28.798Z,4872
2023-03-08T11:05:09.915Z,5596
2023-03-08T11:05:50.370Z,6152
2023-03-08T11:06:30.915Z,6836
2023-03-08T11:11:18.834Z,7220
2023-03-08T11:13:32.953Z,6232
2023-03-08T11:14:14.631Z,6124
2023-03-08T11:14:57.176Z,6136
2023-03-08T11:15:37.747Z,6088
2023-03-08T11:17:51.625Z,5316
2023-03-08T11:18:33.994Z,5652
2023-03-08T11:19:15.785Z,5520
2023-03-08T11:19:57.310Z,5056
2023-03-08T11:22:11.292Z,5052
2023-03-08T11:22:51.893Z,4776
2023-03-08T11:23:32.384Z,4348
2023-03-08T11:24:13.649Z,4364
2023-03-08T11:26:28.816Z,4096
2023-03-08T11:27:11.105Z,4316
2023-03-08T11:27:52.339Z,4584
2023-03-08T11:28:33.592Z,4588
2023-03-08T11:30:48.225Z,5440
2023-03-08T11:31:28.765Z,5472
2023-03-08T11:32:09.258Z,4976
2023-03-08T11:32:49.869Z,4932
2023-03-08T11:33:30.940Z,5056
2023-03-08T11:34:11.417Z,4952
2023-03-08T11:34:51.862Z,4792
2023-03-08T11:37:05.116Z,5628
2023-03-08T11:37:45.687Z,5516
2023-03-08T11:38:27.055Z,4860
2023-03-08T11:39:07.589Z,4964
2023-03-08T11:39:48.136Z,5036
2023-03-08T11:40:28.693Z,5444
2023-03-08T11:41:09.243Z,5640
2023-03-08T11:41:49.792Z,5760
2023-03-08T11:46:34.988Z,5152
2023-03-08T11:47:15.490Z,5188
2023-03-08T11:47:56.108Z,5124
2023-03-08T11:48:36.759Z,5168
2023-03-08T11:49:17.291Z,5452
2023-03-08T11:51:33.538Z,6292
2023-03-08T11:52:14.047Z,6696
2023-03-08T11:52:58.045Z,6488
2023-03-08T11:53:43.518Z,6592
2023-03-08T11:54:23.014Z,6776
2023-03-08T11:55:04.258Z,7372
2023-03-08T11:55:48.016Z,7000
2023-03-08T11:57:11.524Z,7276
2023-03-08T11:57:54.845Z,7488
2023-03-08T12:00:08.976Z,7580
2023-03-08T12:00:49.527Z,7728
2023-03-08T12:01:30.081Z,7352
2023-03-08T12:02:10.618Z,6596
2023-03-08T12:02:52.797Z,7848
2023-03-08T12:03:33.489Z,8464
2023-03-08T12:04:13.900Z,8444
2023-03-08T12:10:19.229Z,6572
2023-03-08T12:11:00.255Z,5468
2023-03-08T12:11:40.774Z,5420
2023-03-08T12:12:21.255Z,5296
2023-03-08T12:13:01.780Z,4984
2023-03-08T12:13:42.339Z,4948
2023-03-08T12:14:22.888Z,4692
2023-03-08T12:15:03.501Z,5248
2023-03-08T12:18:20.294Z,5696
2023-03-08T12:19:01.442Z,5984
2023-03-08T12:19:41.971Z,6444
2023-03-08T12:20:22.542Z,5728
2023-03-08T12:22:51.080Z,4676
2023-03-08T12:23:31.737Z,3848
2023-03-08T12:24:12.371Z,3756
2023-03-08T12:24:52.849Z,4192
2023-03-08T12:25:34.241Z,4004
2023-03-08T12:26:15.380Z,4452
2023-03-08T12:26:56.110Z,3972
2023-03-08T12:34:11.350Z,5196
2023-03-08T12:34:49.651Z,5120
2023-03-08T12:35:32.171Z,4820
2023-03-08T12:36:12.821Z,5980
2023-03-08T12:36:53.433Z,6212
2023-03-08T12:37:34.036Z,5416
2023-03-08T12:42:46.362Z,5188
2023-03-08T12:43:27.526Z,5984
2023-03-08T12:44:15.866Z,5800
2023-03-08T12:44:57.016Z,5068
2023-03-08T12:47:03.167Z,6268
2023-03-08T12:47:36.167Z,5544
2023-03-08T12:48:18.453Z,5856
2023-03-08T12:48:59.009Z,6272
2023-03-08T12:49:39.551Z,6272
2023-03-08T12:50:21.187Z,6080
2023-03-08T12:55:05.486Z,6944
2023-03-08T12:55:45.944Z,7540
2023-03-08T12:56:28.586Z,8120
2023-03-08T12:57:06.992Z,7700
2023-03-08T12:57:48.488Z,8020
2023-03-08T13:00:06.640Z,8064
2023-03-08T13:00:47.227Z,7040
2023-03-08T13:01:30.279Z,6844
2023-03-08T13:02:10.729Z,7324
2023-03-08T13:04:08.695Z,7608
2023-03-08T13:04:49.341Z,7676
2023-03-08T13:05:29.971Z,9060
2023-03-08T13:06:10.491Z,9880
2023-03-08T13:06:51.121Z,9532
2023-03-08T13:07:31.561Z,8292
2023-03-08T13:08:12.142Z,8392
2023-03-08T13:08:52.632Z,8608
2023-03-08T13:09:33.179Z,8008
2023-03-08T13:10:13.856Z,9344
2023-03-08T13:15:38.617Z,5704
2023-03-08T13:16:19.244Z,4796
2023-03-08T13:16:59.935Z,4452
2023-03-08T13:17:40.463Z,4068
2023-03-08T13:19:53.603Z,3096
2023-03-08T13:20:34.136Z,3184
2023-03-08T13:21:15.458Z,3320
2023-03-08T13:21:56.078Z,2884
2023-03-08T13:22:36.654Z,2780
2023-03-08T13:23:17.173Z,2580
2023-03-08T13:23:57.661Z,2252
2023-03-08T13:26:26.793Z,2576
2023-03-08T13:27:07.745Z,2644
2023-03-08T13:27:48.936Z,2644
2023-03-08T13:28:44.625Z,2480
2023-03-08T13:30:28.544Z,1944
2023-03-08T13:31:09.075Z,1816
2023-03-08T13:31:49.608Z,1928
2023-03-08T13:32:30.202Z,2016
2023-03-08T13:33:10.702Z,1788
2023-03-08T13:33:51.270Z,1620
2023-03-08T13:34:31.852Z,1620
2023-03-08T13:38:25.962Z,3864
2023-03-08T13:39:06.552Z,4084
2023-03-08T13:39:47.100Z,4280
2023-03-08T13:40:27.707Z,4356
2023-03-08T13:42:57.735Z,4532
2023-03-08T13:43:38.272Z,4324
2023-03-08T13:44:18.829Z,3952
2023-03-08T13:44:59.320Z,4012
2023-03-08T13:45:39.825Z,4176
2023-03-08T13:46:20.495Z,3916
2023-03-08T13:47:00.941Z,3688
2023-03-08T13:47:41.541Z,4160
2023-03-08T13:48:22.065Z,3808
2023-03-08T13:49:02.657Z,2872
2023-03-08T13:54:23.554Z,1084
2023-03-08T13:55:04.012Z,1144
2023-03-08T13:55:44.510Z,1564
2023-03-08T13:56:25.115Z,1988
2023-03-08T13:57:05.697Z,2128
2023-03-08T13:57:46.142Z,1968
2023-03-08T13:58:26.775Z,1736
2023-03-08T13:59:07.211Z,1464
2023-03-08T13:59:47.720Z,1532
2023-03-08T14:05:53.245Z,3740
2023-03-08T14:06:33.772Z,3180
2023-03-08T14:07:14.264Z,3128
2023-03-08T14:07:54.778Z,2744
2023-03-08T14:08:35.295Z,2408
2023-03-08T14:09:15.829Z,2340
2023-03-08T14:09:56.383Z,2256
2023-03-08T14:10:36.950Z,2192
2023-03-08T14:11:17.412Z,1884
2023-03-08T14:11:57.965Z,1868
2023-03-08T14:12:38.515Z,1864
2023-03-08T14:18:43.371Z,2092
2023-03-08T14:19:23.916Z,2160
2023-03-08T14:20:04.491Z,2428
2023-03-08T14:20:44.907Z,2404
2023-03-08T14:21:25.493Z,2432
2023-03-08T14:22:06.949Z,2808
2023-03-08T14:22:48.494Z,2760
2023-03-08T14:28:13.375Z,3968
2023-03-08T14:28:53.886Z,5016
2023-03-08T14:29:34.478Z,3916
2023-03-08T14:30:14.927Z,3204
2023-03-08T14:30:55.496Z,3216
2023-03-08T14:31:36.155Z,3352
2023-03-08T14:32:16.651Z,2972
2023-03-08T14:32:57.187Z,3368
2023-03-08T14:33:42.368Z,3576
2023-03-08T14:34:19.002Z,2928
2023-03-08T14:38:23.228Z,3228
2023-03-08T14:39:03.793Z,2816
2023-03-08T14:39:44.299Z,2708
2023-03-08T14:40:26.557Z,2940
2023-03-08T14:41:06.230Z,2720
2023-03-08T14:44:22.471Z,2524
2023-03-08T14:45:03.005Z,2576
2023-03-08T14:45:43.531Z,2688
2023-03-08T14:46:24.812Z,1944
2023-03-08T14:47:05.352Z,1668
2023-03-08T14:47:45.871Z,1852
2023-03-08T14:48:26.371Z,1968
2023-03-08T14:49:06.933Z,1944
2023-03-08T14:49:47.475Z,2264
2023-03-08T14:55:31.586Z,3416
2023-03-08T14:56:12.117Z,2932
2023-03-08T14:56:52.667Z,2040
2023-03-08T14:57:33.221Z,1888
2023-03-08T14:58:14.332Z,2948
2023-03-08T14:58:55.573Z,3888
2023-03-08T14:59:36.092Z,3192
2023-03-08T15:00:16.679Z,2724
2023-03-08T15:03:41.399Z,1816
2023-03-08T15:04:22.003Z,1912
2023-03-08T15:05:02.445Z,2124
2023-03-08T15:05:42.960Z,1816
2023-03-08T15:06:23.502Z,1452
2023-03-08T15:07:04.713Z,1696
2023-03-08T15:10:21.732Z,1796
2023-03-08T15:11:02.334Z,1836
2023-03-08T15:11:42.850Z,1548
2023-03-08T15:12:23.385Z,1368
2023-03-08T15:13:03.943Z,1152
2023-03-08T15:15:17.066Z,1520
2023-03-08T15:15:58.235Z,1812
2023-03-08T15:16:43.210Z,2752
2023-03-08T15:17:25.534Z,2720
2023-03-08T15:19:39.094Z,1184
2023-03-08T15:20:19.619Z,1548
2023-03-08T15:21:00.128Z,1776
2023-03-08T15:21:40.645Z,1556
2023-03-08T15:22:21.207Z,2424
2023-03-08T15:23:01.749Z,2692
2023-03-08T15:23:42.215Z,2084
2023-03-08T15:24:22.779Z,1372
2023-03-08T15:25:03.832Z,1080
2023-03-08T15:30:28.957Z,616
2023-03-08T15:31:09.566Z,796
2023-03-08T15:31:50.041Z,768
2023-03-08T15:32:30.620Z,612
2023-03-08T15:33:11.083Z,604
2023-03-08T15:33:51.667Z,556
2023-03-08T15:34:32.155Z,564
2023-03-08T15:35:12.691Z,584
2023-03-08T15:35:53.287Z,600
2023-03-08T15:36:33.763Z,568
2023-03-08T15:43:18.952Z,712
2023-03-08T15:43:59.507Z,716
2023-03-08T15:44:40.021Z,700
2023-03-08T15:45:20.556Z,772
2023-03-08T15:46:01.081Z,1004
2023-03-08T15:46:42.579Z,1056
2023-03-08T15:47:23.020Z,844
2023-03-08T15:48:04.486Z,716
2023-03-08T15:52:49.073Z,988
2023-03-08T15:53:35.551Z,872
2023-03-08T15:54:10.121Z,656